ケープタウン の空港の天気 - METARとTAF

ケープタウン国際空港 ( FACT / CPT ) - 南アフリカ ケープタウン
飛行場実況気象(Metar)
観測時間06/17 21:00 SAST (06/17 19:00 UTC)
風向・風速不定 1m/s
視程1000m
天気現象散在した霧
なし
気温10℃
湿度94%
気圧1023hPa
METARFACT 171900Z VRB01KT 1000 BCFG NSC 10/09 Q1023 NOSIG
過去の天気等 Google飛行場航空写真 Wunderground天気予報

過去48時間のMETAR

飛行場予報(TAF)
発表時間: 6/17 18:00 SAST (6/17 16:00 UTC)
予報対象時間: 17日20時 SAST ~ 19日2時 SAST
風向・風速南南西 2m/s
視程10km以上
なし
17日20時 SAST ~ 18日9時 SAST に 確率 30% で一時的に
視程1200m
天気現象散在した霧
なし
TAF FACT 171600Z 1718/1824 21003KT CAVOK TX25/1812Z TN07/1806Z
PROB30 TEMPO 1718/1807 1200 BCFG NSC